Terminal Aerodrome Forecast
Issued by NWS

Home | Current Version | Previous Version | Text Only | Print | Product List | Glossary On
Versions: 1 2 3 4 5 6 7 8 9 10 11 12
000
FTUS44 KJAN 020520
TAFHKS
TAF
KHKS 020520Z 0206/0306 VRB03KT P6SM FEW060 SCT100 BKN250
     FM021000 VRB03KT 3SM BR HZ FEW060 SCT120 BKN250
     FM021430 34005KT P6SM SCT060 SCT120 BKN250=

USA.gov is the U.S. government's official web portal to all federal, state and local government web resources and services.